Time;durP1;ratioP1;P1;durP2;ratioP2;P2;SDS_P1;SDS_P2;PMS_P1;PMS_P2;Temp;Humidity;BMP_temperature;BMP_pressure;BME280_temperature;BME280_humidity;BME280_pressure;Samples;Min_cycle;Max_cycle;Signal;HPM_P1;HPM_P2
2021/12/19 00:04:32;;;;;;;27.02;4.70;;;;;;;;;;5039924;28;20132;-63
2021/12/19 00:09:45;;;;;;;23.98;4.90;;;;;;;;;;5031103;28;20049;-63
2021/12/19 00:12:11;;;;;;;20.63;4.85;;;;;;;;;;5036978;28;20136;-63
2021/12/19 00:14:38;;;;;;;20.63;4.28;;;;;;;;;;5040759;28;20135;-63
2021/12/19 00:17:05;;;;;;;31.70;4.88;;;;;;;;;;5037318;28;20123;-63
2021/12/19 00:19:31;;;;;;;21.02;4.80;;;;;;;;;;5037571;28;20952;-63
2021/12/19 00:21:58;;;;;;;28.08;4.57;;;;;;;;;;5036670;28;20084;-63
2021/12/19 00:24:26;;;;;;;20.25;4.32;;;;;;;;;;5040255;28;20136;-63
2021/12/19 00:26:53;;;;;;;21.48;4.25;;;;;;;;;;5037455;28;20140;-63
2021/12/19 00:29:19;;;;;;;21.23;4.35;;;;;;;;;;5039553;28;20055;-63
2021/12/19 00:31:48;;;;;;;19.70;4.27;;;;;;;;;;5041438;28;20531;-63
2021/12/19 00:34:15;;;;;;;26.00;8.45;;;;;;;;;;5039078;28;20342;-63
2021/12/19 00:36:42;;;;;;;19.23;6.90;;;;;;;;;;5035877;28;20092;-64
2021/12/19 00:39:15;;;;;;;24.48;5.60;;;;;;;;;;5036955;28;20171;-63
2021/12/19 00:41:41;;;;;;;19.83;4.47;;;;;;;;;;5039300;28;20136;-63
2021/12/19 00:44:12;;;;;;;25.58;5.70;;;;;;;;;;5039694;28;20055;-63
2021/12/19 00:46:54;;;;;;;23.33;4.70;;;;;;;;;;5041050;28;20133;-63
2021/12/19 00:49:22;;;;;;;15.30;4.03;;;;;;;;;;5038389;28;20135;-64
2021/12/19 00:51:49;;;;;;;14.50;4.00;;;;;;;;;;5040554;28;20056;-63
2021/12/19 00:54:16;;;;;;;20.30;4.03;;;;;;;;;;5040049;28;20080;-63
2021/12/19 00:56:44;;;;;;;19.60;4.30;;;;;;;;;;5038022;28;20141;-63
2021/12/19 00:59:12;;;;;;;20.95;4.78;;;;;;;;;;5040009;28;20037;-64
2021/12/19 01:01:41;;;;;;;19.58;4.30;;;;;;;;;;5039181;28;20119;-63
2021/12/19 01:04:11;;;;;;;12.73;3.63;;;;;;;;;;5043333;28;20168;-63
2021/12/19 01:06:41;;;;;;;17.38;3.70;;;;;;;;;;5040058;28;20139;-63
2021/12/19 01:09:08;;;;;;;17.77;3.35;;;;;;;;;;5036461;28;20132;-63
2021/12/19 01:11:35;;;;;;;22.55;3.58;;;;;;;;;;5038613;28;20442;-63
2021/12/19 01:14:03;;;;;;;23.27;3.80;;;;;;;;;;5043884;28;20132;-63
2021/12/19 01:16:30;;;;;;;22.70;5.35;;;;;;;;;;5035500;28;20524;-63
2021/12/19 01:18:57;;;;;;;17.05;5.13;;;;;;;;;;5030738;28;20132;-63
2021/12/19 01:21:31;;;;;;;14.95;3.92;;;;;;;;;;5035694;28;20144;-63
2021/12/19 01:23:57;;;;;;;26.05;4.03;;;;;;;;;;5035989;28;20149;-63
2021/12/19 01:26:24;;;;;;;19.33;4.57;;;;;;;;;;5038141;28;20053;-63
2021/12/19 01:28:58;;;;;;;13.68;3.65;;;;;;;;;;5038443;28;20441;-63
2021/12/19 01:31:24;;;;;;;13.40;3.30;;;;;;;;;;5034449;28;20204;-63
2021/12/19 01:33:51;;;;;;;10.77;3.35;;;;;;;;;;5043678;28;20318;-63
2021/12/19 01:36:18;;;;;;;11.77;3.40;;;;;;;;;;5037991;28;20048;-63
2021/12/19 01:38:45;;;;;;;21.17;4.28;;;;;;;;;;5041246;28;20057;-63
2021/12/19 01:41:11;;;;;;;14.25;4.22;;;;;;;;;;5060753;28;20072;-63
2021/12/19 01:43:38;;;;;;;21.20;4.07;;;;;;;;;;5060463;28;20049;-63
2021/12/19 01:46:04;;;;;;;13.77;4.03;;;;;;;;;;5061555;28;20132;-63
2021/12/19 01:48:30;;;;;;;15.80;3.50;;;;;;;;;;5062061;28;20080;-63
2021/12/19 01:50:58;;;;;;;22.23;3.50;;;;;;;;;;5055987;28;20048;-63
2021/12/19 01:53:24;;;;;;;13.57;3.30;;;;;;;;;;5056923;28;20083;-63
2021/12/19 01:55:51;;;;;;;17.08;3.63;;;;;;;;;;5061334;28;20136;-63
2021/12/19 01:58:25;;;;;;;18.05;4.15;;;;;;;;;;5056178;28;20083;-63
2021/12/19 02:00:53;;;;;;;15.88;3.25;;;;;;;;;;5064071;28;20127;-63
2021/12/19 02:03:20;;;;;;;13.85;3.10;;;;;;;;;;5056270;28;20045;-63
2021/12/19 02:05:47;;;;;;;15.30;3.20;;;;;;;;;;5056312;28;20045;-63
2021/12/19 02:08:14;;;;;;;8.00;2.23;;;;;;;;;;5059724;28;20135;-63
2021/12/19 02:10:41;;;;;;;11.75;2.80;;;;;;;;;;5060418;28;20132;-63
2021/12/19 02:13:09;;;;;;;10.80;3.20;;;;;;;;;;5057753;28;20814;-63
2021/12/19 02:15:36;;;;;;;13.73;2.60;;;;;;;;;;5059158;28;20500;-63
2021/12/19 02:18:06;;;;;;;16.85;4.07;;;;;;;;;;5062958;28;20045;-63
2021/12/19 02:20:34;;;;;;;14.27;3.00;;;;;;;;;;5062735;28;20048;-63
2021/12/19 02:23:01;;;;;;;17.92;3.00;;;;;;;;;;5062677;28;20131;-63
2021/12/19 02:25:28;;;;;;;20.27;3.00;;;;;;;;;;5057517;28;20076;-63
2021/12/19 02:27:58;;;;;;;13.82;3.05;;;;;;;;;;5060694;28;20075;-63
2021/12/19 02:30:25;;;;;;;11.53;2.70;;;;;;;;;;5059695;28;20127;-63
2021/12/19 02:32:51;;;;;;;16.60;2.60;;;;;;;;;;5062700;28;20330;-63
2021/12/19 02:35:30;;;;;;;11.57;2.70;;;;;;;;;;5064129;28;20492;-63
2021/12/19 02:49:02;;;;;;;12.15;2.47;;;;;;;;;;5062388;28;20179;-63
2021/12/19 02:51:34;;;;;;;11.50;2.70;;;;;;;;;;5062039;28;20701;-63
2021/12/19 02:54:01;;;;;;;12.65;2.65;;;;;;;;;;5062340;28;20132;-63
2021/12/19 02:56:28;;;;;;;11.07;2.10;;;;;;;;;;5057598;28;20136;-63
2021/12/19 02:58:54;;;;;;;15.23;2.30;;;;;;;;;;5059564;28;20588;-63
2021/12/19 03:01:21;;;;;;;9.02;2.22;;;;;;;;;;5063036;28;20079;-63
2021/12/19 03:03:48;;;;;;;12.02;2.40;;;;;;;;;;5060040;28;20135;-63
2021/12/19 03:06:14;;;;;;;13.77;1.88;;;;;;;;;;5060385;28;20045;-63
2021/12/19 03:08:45;;;;;;;18.70;3.00;;;;;;;;;;5062034;28;20132;-63
2021/12/19 03:12:02;;;;;;;17.92;2.90;;;;;;;;;;5062946;28;20073;-63
2021/12/19 03:19:37;;;;;;;12.23;2.35;;;;;;;;;;5062200;28;20500;-63
2021/12/19 03:22:03;;;;;;;15.07;2.30;;;;;;;;;;5057784;28;20095;-63
2021/12/19 03:24:29;;;;;;;16.83;2.30;;;;;;;;;;5058243;28;20087;-63
2021/12/19 03:26:56;;;;;;;12.18;3.00;;;;;;;;;;5059122;28;20437;-63
2021/12/19 03:29:28;;;;;;;23.20;3.25;;;;;;;;;;5062127;28;20131;-63
2021/12/19 03:31:56;;;;;;;11.48;2.40;;;;;;;;;;5062538;28;20136;-64
2021/12/19 03:34:22;;;;;;;14.88;2.55;;;;;;;;;;5060670;28;20136;-63
2021/12/19 03:36:51;;;;;;;17.58;2.63;;;;;;;;;;5061224;28;20139;-63
2021/12/19 03:39:26;;;;;;;20.98;2.60;;;;;;;;;;5057769;28;20136;-63
2021/12/19 03:41:55;;;;;;;19.38;2.58;;;;;;;;;;5058627;28;20132;-63
2021/12/19 03:44:21;;;;;;;16.88;2.72;;;;;;;;;;5057676;28;20084;-63
2021/12/19 03:46:48;;;;;;;23.70;2.80;;;;;;;;;;5061662;28;20124;-63
2021/12/19 03:49:17;;;;;;;16.80;2.70;;;;;;;;;;5062418;28;20139;-63
2021/12/19 03:51:44;;;;;;;22.40;3.20;;;;;;;;;;5061592;28;20088;-63
2021/12/19 03:54:10;;;;;;;18.85;2.75;;;;;;;;;;5059415;28;20087;-63
2021/12/19 03:56:37;;;;;;;10.70;2.33;;;;;;;;;;5062320;28;20563;-63
2021/12/19 03:59:04;;;;;;;17.05;2.80;;;;;;;;;;5060784;28;20366;-63
2021/12/19 04:01:30;;;;;;;33.63;3.85;;;;;;;;;;5060094;28;20128;-63
2021/12/19 04:04:04;;;;;;;19.75;2.80;;;;;;;;;;5054984;28;20072;-63
2021/12/19 04:06:31;;;;;;;18.25;2.25;;;;;;;;;;5062559;28;20128;-63
2021/12/19 04:08:58;;;;;;;14.35;2.88;;;;;;;;;;5060671;28;20045;-63
2021/12/19 04:11:25;;;;;;;22.70;2.70;;;;;;;;;;5058861;28;20147;-64
2021/12/19 04:13:52;;;;;;;13.93;2.65;;;;;;;;;;5060175;28;20132;-63
2021/12/19 04:16:18;;;;;;;19.00;2.97;;;;;;;;;;5061375;28;20049;-63
2021/12/19 04:18:52;;;;;;;18.48;2.80;;;;;;;;;;5059796;28;20063;-63
2021/12/19 04:21:18;;;;;;;21.63;2.58;;;;;;;;;;5061663;28;20091;-64
2021/12/19 04:23:44;;;;;;;14.23;2.60;;;;;;;;;;5061452;28;20128;-63
2021/12/19 04:26:14;;;;;;;18.42;2.78;;;;;;;;;;5056569;28;20456;-63
2021/12/19 04:28:41;;;;;;;18.83;2.88;;;;;;;;;;5055042;28;20132;-63
2021/12/19 04:31:07;;;;;;;19.63;2.35;;;;;;;;;;5055415;28;20243;-63
2021/12/19 04:33:38;;;;;;;23.38;2.63;;;;;;;;;;5057726;28;20456;-63
2021/12/19 04:36:07;;;;;;;22.17;2.65;;;;;;;;;;5055889;28;20191;-63
2021/12/19 04:41:53;;;;;;;27.15;3.80;;;;;;;;;;5058189;28;20087;-63
2021/12/19 05:06:10;;;;;;;20.88;3.20;;;;;;;;;;5058558;28;20497;-63
2021/12/19 05:16:43;;;;;;;15.10;2.30;;;;;;;;;;5061305;28;20133;-63
2021/12/19 05:19:41;;;;;;;16.17;2.55;;;;;;;;;;5056206;28;20162;-63
2021/12/19 05:22:15;;;;;;;16.73;2.25;;;;;;;;;;5054200;28;21677;-63
2021/12/19 05:25:01;;;;;;;14.00;2.33;;;;;;;;;;5060278;28;20091;-63
2021/12/19 05:27:28;;;;;;;17.17;2.90;;;;;;;;;;5061845;28;20495;-63
2021/12/19 05:29:54;;;;;;;16.00;3.27;;;;;;;;;;5059924;28;20147;-63
2021/12/19 05:32:20;;;;;;;11.55;2.38;;;;;;;;;;5058701;28;20044;-63
2021/12/19 05:34:54;;;;;;;19.90;2.85;;;;;;;;;;5057925;28;20409;-63
2021/12/19 05:45:53;;;;;;;20.10;2.65;;;;;;;;;;5036983;28;20055;-63
2021/12/19 05:48:20;;;;;;;13.98;2.03;;;;;;;;;;5083213;28;20075;-63
2021/12/19 05:50:46;;;;;;;16.27;2.72;;;;;;;;;;5080660;28;20140;-63
2021/12/19 05:53:20;;;;;;;16.23;2.50;;;;;;;;;;5082962;28;20590;-63
2021/12/19 05:55:46;;;;;;;16.50;2.42;;;;;;;;;;5080229;28;20134;-63
2021/12/19 05:58:13;;;;;;;10.40;2.30;;;;;;;;;;5083139;28;20082;-64
2021/12/19 06:00:40;;;;;;;13.55;2.13;;;;;;;;;;5061623;28;20051;-63
2021/12/19 06:03:06;;;;;;;12.93;1.97;;;;;;;;;;5059371;28;20737;-63
2021/12/19 06:05:33;;;;;;;14.43;2.50;;;;;;;;;;5060005;28;20053;-63
2021/12/19 06:08:00;;;;;;;13.32;2.28;;;;;;;;;;5060730;28;20064;-63
2021/12/19 06:10:28;;;;;;;18.03;2.50;;;;;;;;;;5061540;28;20094;-63
2021/12/19 06:12:57;;;;;;;13.98;2.70;;;;;;;;;;5068762;28;20356;-63
2021/12/19 06:15:25;;;;;;;12.30;2.03;;;;;;;;;;5058814;28;20137;-63
2021/12/19 06:17:52;;;;;;;14.98;1.88;;;;;;;;;;5065489;28;20131;-63
2021/12/19 06:20:19;;;;;;;10.75;1.90;;;;;;;;;;5062071;28;20492;-63
2021/12/19 06:22:53;;;;;;;10.63;2.05;;;;;;;;;;5063708;28;20072;-63
2021/12/19 06:25:19;;;;;;;16.83;2.10;;;;;;;;;;5062793;28;20136;-65
2021/12/19 06:27:46;;;;;;;12.68;2.30;;;;;;;;;;5064556;28;20476;-63
2021/12/19 06:30:15;;;;;;;6.53;1.67;;;;;;;;;;5059708;28;20080;-63
2021/12/19 06:32:42;;;;;;;7.28;1.95;;;;;;;;;;5058757;28;20135;-63
2021/12/19 06:35:17;;;;;;;6.70;1.45;;;;;;;;;;5062634;28;20124;-63
2021/12/19 06:37:50;;;;;;;7.22;1.70;;;;;;;;;;5060749;28;20080;-63
2021/12/19 06:40:18;;;;;;;10.27;1.35;;;;;;;;;;5066691;28;20611;-63
2021/12/19 06:42:44;;;;;;;7.18;1.90;;;;;;;;;;5059148;28;20136;-63
2021/12/19 06:45:15;;;;;;;4.18;1.27;;;;;;;;;;5061395;28;20048;-63
2021/12/19 06:47:42;;;;;;;6.80;1.30;;;;;;;;;;5059794;28;20504;-63
2021/12/19 06:50:09;;;;;;;3.58;1.52;;;;;;;;;;5058629;28;20103;-62
2021/12/19 06:52:36;;;;;;;4.13;1.13;;;;;;;;;;5077298;28;20135;-63
2021/12/19 06:55:03;;;;;;;2.67;1.00;;;;;;;;;;5080791;28;20049;-63
2021/12/19 06:57:29;;;;;;;4.05;1.20;;;;;;;;;;5078041;28;20295;-63
2021/12/19 07:00:13;;;;;;;11.80;1.80;;;;;;;;;;5070679;28;20122;-63
2021/12/19 07:02:40;;;;;;;4.63;1.35;;;;;;;;;;5083561;28;20138;-63
2021/12/19 07:05:14;;;;;;;5.50;1.05;;;;;;;;;;5084153;28;20048;-63
2021/12/19 07:07:40;;;;;;;3.95;1.35;;;;;;;;;;5081083;28;20138;-63
2021/12/19 07:10:07;;;;;;;3.40;1.27;;;;;;;;;;5083859;28;20551;-63
2021/12/19 07:12:34;;;;;;;2.67;1.17;;;;;;;;;;5079675;28;20139;-63
2021/12/19 07:15:00;;;;;;;3.15;0.85;;;;;;;;;;5082930;28;20076;-63
2021/12/19 07:17:27;;;;;;;1.17;1.00;;;;;;;;;;5074600;28;20143;-63
2021/12/19 07:20:00;;;;;;;3.20;0.82;;;;;;;;;;5065904;28;20080;-63
2021/12/19 07:22:26;;;;;;;5.53;1.10;;;;;;;;;;5077912;28;20075;-63
2021/12/19 07:24:53;;;;;;;4.72;0.85;;;;;;;;;;5077045;28;20044;-63
2021/12/19 07:27:26;;;;;;;2.00;0.68;;;;;;;;;;5078734;28;20055;-62
2021/12/19 07:29:56;;;;;;;4.57;1.27;;;;;;;;;;5077964;28;20107;-63
2021/12/19 07:32:23;;;;;;;1.30;1.00;;;;;;;;;;5076189;28;20086;-63
2021/12/19 07:35:11;;;;;;;2.30;0.90;;;;;;;;;;5077421;28;20049;-62
2021/12/19 07:37:37;;;;;;;;;;;;;;;;;;5078920;28;20673;-63
2021/12/19 07:40:16;;;;;;;0.98;0.88;;;;;;;;;;5077059;28;20003;-63
2021/12/19 07:42:43;;;;;;;1.17;0.80;;;;;;;;;;5077796;28;20137;-63
2021/12/19 07:45:12;;;;;;;3.97;0.77;;;;;;;;;;5077943;28;20048;-63
2021/12/19 07:47:39;;;;;;;0.70;0.70;;;;;;;;;;5080727;28;20076;-63
2021/12/19 07:50:06;;;;;;;4.32;0.80;;;;;;;;;;5085831;28;20127;-63
2021/12/19 07:52:32;;;;;;;;;;;;;;;;;;5079586;28;20163;-63
2021/12/19 07:54:59;;;;;;;0.85;0.70;;;;;;;;;;5079353;28;20569;-63
2021/12/19 07:57:26;;;;;;;1.85;0.68;;;;;;;;;;5062974;28;20048;-62
2021/12/19 07:59:52;;;;;;;1.45;0.75;;;;;;;;;;5080361;28;20052;-63
2021/12/19 08:02:27;;;;;;;1.65;0.60;;;;;;;;;;5079663;28;20842;-63
2021/12/19 08:04:53;;;;;;;3.22;0.73;;;;;;;;;;5078843;28;20047;-62
2021/12/19 08:07:23;;;;;;;0.60;0.60;;;;;;;;;;5079171;28;20421;-63
2021/12/19 08:12:34;;;;;;;1.60;0.60;;;;;;;;;;5078575;28;20143;-63
2021/12/19 08:15:01;;;;;;;0.70;0.70;;;;;;;;;;5078710;28;20459;-62
2021/12/19 08:17:27;;;;;;;3.15;1.10;;;;;;;;;;5076634;28;20080;-63
2021/12/19 08:19:53;;;;;;;1.88;0.90;;;;;;;;;;5078156;28;20099;-64
2021/12/19 08:22:24;;;;;;;1.48;0.60;;;;;;;;;;5076002;28;20498;-63
2021/12/19 08:24:51;;;;;;;1.17;0.70;;;;;;;;;;5081128;28;20131;-63
2021/12/19 08:27:18;;;;;;;;;;;;;;;;;;5082770;28;20333;-62
2021/12/19 08:29:48;;;;;;;0.90;0.80;;;;;;;;;;5076676;28;20050;-63
2021/12/19 08:32:15;;;;;;;1.35;0.73;;;;;;;;;;5078563;28;20162;-63
2021/12/19 08:34:41;;;;;;;2.38;0.60;;;;;;;;;;5078526;28;20113;-63
2021/12/19 08:37:08;;;;;;;2.03;0.80;;;;;;;;;;5077539;28;20139;-63
2021/12/19 08:39:35;;;;;;;1.27;0.80;;;;;;;;;;5076446;28;20081;-63
2021/12/19 08:42:02;;;;;;;1.08;0.60;;;;;;;;;;5081844;28;20135;-63
2021/12/19 08:44:28;;;;;;;1.95;0.77;;;;;;;;;;5080471;28;20416;-63
2021/12/19 08:46:55;;;;;;;1.95;1.02;;;;;;;;;;5077866;28;20087;-63
2021/12/19 08:49:21;;;;;;;2.33;0.85;;;;;;;;;;5081827;28;20093;-63
2021/12/19 08:51:49;;;;;;;;;;;;;;;;;;5077985;28;20076;-64
2021/12/19 08:54:15;;;;;;;2.67;0.50;;;;;;;;;;5084367;28;20723;-63
2021/12/19 08:56:41;;;;;;;1.58;0.80;;;;;;;;;;5075800;28;20066;-63
2021/12/19 08:59:10;;;;;;;1.00;0.65;;;;;;;;;;5078819;28;20056;-63
2021/12/19 09:01:36;;;;;;;2.63;0.85;;;;;;;;;;5081477;28;20716;-63
2021/12/19 09:04:03;;;;;;;1.20;0.63;;;;;;;;;;5079140;28;20050;-63
2021/12/19 09:06:32;;;;;;;2.92;1.00;;;;;;;;;;5080877;28;20051;-63
2021/12/19 09:08:58;;;;;;;2.17;0.70;;;;;;;;;;5079876;28;20052;-63
2021/12/19 09:11:24;;;;;;;3.13;0.70;;;;;;;;;;5073854;28;20052;-63
2021/12/19 09:13:58;;;;;;;0.57;0.50;;;;;;;;;;5080666;28;20132;-63
2021/12/19 09:16:26;;;;;;;1.60;0.80;;;;;;;;;;5075743;28;20048;-63
2021/12/19 09:19:10;;;;;;;1.25;0.60;;;;;;;;;;5078780;28;20113;-63
2021/12/19 09:21:37;;;;;;;1.02;0.80;;;;;;;;;;5081213;28;20127;-63
2021/12/19 09:24:04;;;;;;;1.38;0.70;;;;;;;;;;5081014;28;20147;-61
2021/12/19 09:26:30;;;;;;;1.98;0.57;;;;;;;;;;5084791;28;20086;-62
2021/12/19 09:29:04;;;;;;;1.08;0.80;;;;;;;;;;5083044;28;20164;-61
2021/12/19 09:31:30;;;;;;;5.40;0.70;;;;;;;;;;5080881;28;20555;-62
2021/12/19 09:33:57;;;;;;;0.93;0.82;;;;;;;;;;5087448;28;20129;-62
2021/12/19 09:36:24;;;;;;;;;;;;;;;;;;5085151;28;20392;-62
2021/12/19 09:38:51;;;;;;;1.35;0.73;;;;;;;;;;5083904;28;19959;-62
2021/12/19 09:41:27;;;;;;;1.70;0.60;;;;;;;;;;5085244;28;20477;-62
2021/12/19 09:43:58;;;;;;;4.32;0.45;;;;;;;;;;5090191;28;20090;-64
2021/12/19 09:46:28;;;;;;;2.20;1.42;;;;;;;;;;5080584;28;20101;-62
2021/12/19 09:48:54;;;;;;;0.93;0.70;;;;;;;;;;5081421;28;20052;-62
2021/12/19 09:51:21;;;;;;;2.55;0.77;;;;;;;;;;5083412;28;20600;-62
2021/12/19 09:53:47;;;;;;;0.50;0.43;;;;;;;;;;5081769;28;20484;-64
2021/12/19 09:56:14;;;;;;;1.35;0.60;;;;;;;;;;5081547;28;20140;-64
2021/12/19 09:58:41;;;;;;;1.52;0.70;;;;;;;;;;5084530;28;20478;-65
2021/12/19 10:01:09;;;;;;;2.80;0.82;;;;;;;;;;5085674;28;20171;-62
2021/12/19 10:03:42;;;;;;;2.75;0.57;;;;;;;;;;5081653;28;20047;-63
2021/12/19 10:06:12;;;;;;;2.28;0.60;;;;;;;;;;5083695;28;20091;-62
2021/12/19 10:08:40;;;;;;;0.88;0.50;;;;;;;;;;5082855;28;20131;-64
2021/12/19 10:11:30;;;;;;;5.00;0.65;;;;;;;;;;5084429;28;20058;-64
2021/12/19 10:13:57;;;;;;;0.95;0.50;;;;;;;;;;5081493;28;20084;-64
2021/12/19 10:16:29;;;;;;;1.05;0.43;;;;;;;;;;5083511;28;20044;-64
2021/12/19 10:18:58;;;;;;;0.98;0.60;;;;;;;;;;5084076;28;20452;-64
2021/12/19 10:21:27;;;;;;;1.60;0.60;;;;;;;;;;5083767;28;20647;-64
2021/12/19 10:23:59;;;;;;;0.77;0.60;;;;;;;;;;5080633;28;20040;-64
2021/12/19 10:26:38;;;;;;;1.05;0.50;;;;;;;;;;5080172;28;20044;-65
2021/12/19 10:29:05;;;;;;;2.50;0.60;;;;;;;;;;5085552;28;20135;-64
2021/12/19 10:31:38;;;;;;;3.72;0.70;;;;;;;;;;5082128;28;20872;-64
2021/12/19 10:34:36;;;;;;;6.78;0.80;;;;;;;;;;5084251;28;20091;-64
2021/12/19 10:37:30;;;;;;;0.50;0.50;;;;;;;;;;5047460;28;20515;-64
2021/12/19 10:39:58;;;;;;;2.05;0.65;;;;;;;;;;5081817;28;20075;-64
2021/12/19 10:42:26;;;;;;;2.13;0.68;;;;;;;;;;5079598;28;20041;-64
2021/12/19 10:47:43;;;;;;;1.95;0.60;;;;;;;;;;5079964;28;20135;-64
2021/12/19 10:50:09;;;;;;;1.33;0.90;;;;;;;;;;5085820;28;20052;-64
2021/12/19 10:52:38;;;;;;;2.35;0.70;;;;;;;;;;5083120;28;20051;-65
2021/12/19 10:55:07;;;;;;;1.45;0.50;;;;;;;;;;5080055;28;20507;-64
2021/12/19 10:57:35;;;;;;;1.10;0.60;;;;;;;;;;5081753;28;20575;-62
2021/12/19 11:00:05;;;;;;;0.93;0.43;;;;;;;;;;5075651;28;20487;-62
2021/12/19 11:02:38;;;;;;;0.85;0.52;;;;;;;;;;5079587;28;20044;-62
2021/12/19 11:05:05;;;;;;;2.08;0.70;;;;;;;;;;5083838;28;20078;-64
2021/12/19 11:07:32;;;;;;;1.83;0.40;;;;;;;;;;5084222;28;20123;-61
2021/12/19 11:09:58;;;;;;;0.60;0.37;;;;;;;;;;5079534;28;20139;-62
2021/12/19 11:12:25;;;;;;;0.60;0.45;;;;;;;;;;5083832;28;20421;-61
2021/12/19 11:14:52;;;;;;;0.40;0.40;;;;;;;;;;5080730;28;20143;-62
2021/12/19 11:17:21;;;;;;;0.82;0.73;;;;;;;;;;5078620;28;20052;-62
2021/12/19 11:19:50;;;;;;;0.40;0.40;;;;;;;;;;5080656;28;20131;-62
2021/12/19 11:22:25;;;;;;;1.05;0.43;;;;;;;;;;5080642;28;20082;-62
2021/12/19 11:24:52;;;;;;;2.47;0.47;;;;;;;;;;5086715;28;20059;-64
2021/12/19 11:27:20;;;;;;;1.23;0.57;;;;;;;;;;5081402;28;20044;-64
2021/12/19 11:29:49;;;;;;;2.20;0.90;;;;;;;;;;5079568;28;20131;-64
2021/12/19 11:32:19;;;;;;;1.63;0.70;;;;;;;;;;5077970;28;20136;-61
2021/12/19 11:35:00;;;;;;;1.05;0.68;;;;;;;;;;5083255;28;20277;-61
2021/12/19 11:37:33;;;;;;;1.83;0.60;;;;;;;;;;5083294;28;20101;-61
2021/12/19 11:40:00;;;;;;;0.90;0.73;;;;;;;;;;5077683;28;20147;-63
2021/12/19 11:42:52;;;;;;;0.63;0.40;;;;;;;;;;5081815;28;20075;-64
2021/12/19 11:47:54;;;;;;;0.98;0.43;;;;;;;;;;5079992;28;20134;-61
2021/12/19 11:50:23;;;;;;;0.82;0.60;;;;;;;;;;5058200;28;20049;-61
2021/12/19 11:52:51;;;;;;;0.75;0.30;;;;;;;;;;5078029;28;20143;-61
2021/12/19 11:55:19;;;;;;;1.05;0.60;;;;;;;;;;5085698;28;20083;-61
2021/12/19 11:58:06;;;;;;;2.22;0.50;;;;;;;;;;5077759;28;20580;-61
2021/12/19 12:00:38;;;;;;;1.23;0.40;;;;;;;;;;5079186;28;20159;-61
2021/12/19 12:03:11;;;;;;;0.90;0.43;;;;;;;;;;5079232;28;20653;-63
2021/12/19 12:05:38;;;;;;;0.98;0.77;;;;;;;;;;5079927;28;20560;-61
2021/12/19 12:08:05;;;;;;;0.93;0.50;;;;;;;;;;5079730;28;20135;-62
2021/12/19 12:10:47;;;;;;;3.10;0.95;;;;;;;;;;5080557;28;20144;-61
2021/12/19 12:13:34;;;;;;;2.47;0.57;;;;;;;;;;5078387;28;20091;-61
2021/12/19 12:16:20;;;;;;;1.08;0.52;;;;;;;;;;5078770;28;20407;-62
2021/12/19 12:18:54;;;;;;;1.50;0.65;;;;;;;;;;5080470;28;20142;-61
2021/12/19 12:21:32;;;;;;;0.60;0.55;;;;;;;;;;5077994;28;20051;-61
2021/12/19 12:24:05;;;;;;;0.88;0.50;;;;;;;;;;5082195;28;20052;-61
2021/12/19 12:26:45;;;;;;;0.52;0.40;;;;;;;;;;5076527;28;20631;-63
2021/12/19 12:29:11;;;;;;;1.75;0.80;;;;;;;;;;5083161;28;20135;-64
2021/12/19 12:31:42;;;;;;;2.17;0.70;;;;;;;;;;5074948;28;20076;-63
2021/12/19 12:34:09;;;;;;;0.90;0.50;;;;;;;;;;5080177;28;20083;-61
2021/12/19 12:36:35;;;;;;;1.05;0.77;;;;;;;;;;5079521;28;20139;-61
2021/12/19 12:39:07;;;;;;;1.48;0.80;;;;;;;;;;5076152;28;20134;-61
2021/12/19 12:41:50;;;;;;;2.20;1.60;;;;;;;;;;5081777;28;20135;-62
2021/12/19 12:44:20;;;;;;;4.05;0.73;;;;;;;;;;5073033;28;20055;-61
2021/12/19 12:46:47;;;;;;;1.40;0.50;;;;;;;;;;5075788;28;20142;-61
2021/12/19 12:49:17;;;;;;;1.30;0.50;;;;;;;;;;5079964;28;20080;-62
2021/12/19 12:51:45;;;;;;;1.75;0.70;;;;;;;;;;5077712;28;20054;-61
2021/12/19 12:54:25;;;;;;;1.27;0.50;;;;;;;;;;5074444;28;20058;-61
2021/12/19 12:56:55;;;;;;;2.30;0.82;;;;;;;;;;5074966;28;20626;-61
2021/12/19 12:59:22;;;;;;;2.22;0.70;;;;;;;;;;5075421;28;20142;-61
2021/12/19 13:02:07;;;;;;;5.10;2.40;;;;;;;;;;5074395;28;20120;-62
2021/12/19 13:04:42;;;;;;;1.33;0.70;;;;;;;;;;5074130;28;20060;-62
2021/12/19 13:07:09;;;;;;;6.40;2.25;;;;;;;;;;5075955;28;20062;-61
2021/12/19 13:09:36;;;;;;;1.60;0.80;;;;;;;;;;5076042;28;20052;-62
2021/12/19 13:12:10;;;;;;;3.67;1.02;;;;;;;;;;5077200;28;20124;-62
2021/12/19 13:14:38;;;;;;;1.45;0.60;;;;;;;;;;5079598;28;20710;-62
2021/12/19 13:17:07;;;;;;;0.88;0.50;;;;;;;;;;5071596;28;20124;-61
2021/12/19 13:19:44;;;;;;;1.88;0.60;;;;;;;;;;5077119;28;20786;-61
2021/12/19 13:22:17;;;;;;;0.65;0.50;;;;;;;;;;5085596;28;20101;-61
2021/12/19 13:24:43;;;;;;;1.85;0.63;;;;;;;;;;5076615;28;20127;-61
2021/12/19 13:27:15;;;;;;;1.50;0.65;;;;;;;;;;5079172;28;20130;-61
2021/12/19 13:29:42;;;;;;;1.48;0.70;;;;;;;;;;5079010;28;20155;-62
2021/12/19 13:32:29;;;;;;;2.65;0.82;;;;;;;;;;5078215;28;20445;-62
2021/12/19 13:34:57;;;;;;;0.70;0.60;;;;;;;;;;5072767;28;20052;-61
2021/12/19 13:37:23;;;;;;;;;;;;;;;;;;5080706;28;20044;-62
2021/12/19 13:40:10;;;;;;;2.35;0.70;;;;;;;;;;5076879;28;20370;-62
2021/12/19 13:42:44;;;;;;;1.45;0.68;;;;;;;;;;5077581;28;20047;-62
2021/12/19 13:45:24;;;;;;;1.42;0.90;;;;;;;;;;5079014;28;20134;-62
2021/12/19 13:47:52;;;;;;;1.77;0.77;;;;;;;;;;5078690;28;20123;-62
2021/12/19 13:50:19;;;;;;;3.65;1.05;;;;;;;;;;5081370;28;20411;-62
2021/12/19 13:52:45;;;;;;;2.70;1.17;;;;;;;;;;5077305;28;20080;-62
2021/12/19 13:55:14;;;;;;;3.70;1.00;;;;;;;;;;5079049;28;20090;-62
2021/12/19 13:57:41;;;;;;;2.33;0.95;;;;;;;;;;5081085;28;20056;-62
2021/12/19 14:00:09;;;;;;;0.75;0.75;;;;;;;;;;5084337;28;20079;-62
2021/12/19 14:02:39;;;;;;;2.78;0.82;;;;;;;;;;5077072;28;20486;-62
2021/12/19 14:05:24;;;;;;;2.75;1.30;;;;;;;;;;5078800;28;20080;-62
2021/12/19 14:07:58;;;;;;;4.35;0.80;;;;;;;;;;5080993;28;20175;-62
2021/12/19 14:10:24;;;;;;;1.63;0.80;;;;;;;;;;5083615;28;20072;-62
2021/12/19 14:13:06;;;;;;;0.90;0.80;;;;;;;;;;5079670;28;20131;-62
2021/12/19 14:15:50;;;;;;;3.60;1.35;;;;;;;;;;5084009;28;20496;-62
2021/12/19 14:18:43;;;;;;;1.90;1.10;;;;;;;;;;5081585;28;20079;-62
2021/12/19 14:21:31;;;;;;;2.28;0.90;;;;;;;;;;5081719;28;20052;-62
2021/12/19 14:24:10;;;;;;;1.33;0.93;;;;;;;;;;5086357;28;20086;-62
2021/12/19 14:26:39;;;;;;;1.95;0.60;;;;;;;;;;5081386;28;20571;-62
2021/12/19 14:29:21;;;;;;;1.25;0.80;;;;;;;;;;5080142;28;20051;-62
2021/12/19 14:31:52;;;;;;;1.63;0.98;;;;;;;;;;5081261;28;20086;-62
2021/12/19 14:34:20;;;;;;;2.33;0.90;;;;;;;;;;5081636;28;20135;-62
2021/12/19 14:36:46;;;;;;;;;;;;;;;;;;5085720;28;20075;-62
2021/12/19 14:39:20;;;;;;;2.33;0.88;;;;;;;;;;5074491;28;20362;-62
2021/12/19 14:41:46;;;;;;;5.57;1.20;;;;;;;;;;5073679;28;20183;-62
2021/12/19 14:44:22;;;;;;;1.40;1.17;;;;;;;;;;5079280;28;20403;-62
2021/12/19 14:46:49;;;;;;;1.52;0.93;;;;;;;;;;5082100;28;20045;-62
2021/12/19 14:49:16;;;;;;;2.67;0.80;;;;;;;;;;5078685;28;20461;-62
2021/12/19 14:51:42;;;;;;;1.20;0.77;;;;;;;;;;5080868;28;20075;-62
2021/12/19 14:54:09;;;;;;;1.50;1.40;;;;;;;;;;5078444;28;20087;-62
2021/12/19 14:56:35;;;;;;;1.35;0.70;;;;;;;;;;5080450;28;20070;-62
2021/12/19 14:59:03;;;;;;;1.08;0.80;;;;;;;;;;5082004;28;20132;-62
2021/12/19 15:01:37;;;;;;;1.63;1.08;;;;;;;;;;5078129;28;20123;-62
2021/12/19 15:04:08;;;;;;;1.08;0.93;;;;;;;;;;5077276;28;20051;-62
2021/12/19 15:06:39;;;;;;;1.67;1.10;;;;;;;;;;5081198;28;20415;-62
2021/12/19 15:09:10;;;;;;;3.58;1.20;;;;;;;;;;5081545;28;20414;-62
2021/12/19 15:11:37;;;;;;;3.47;1.40;;;;;;;;;;5080905;28;20052;-62
2021/12/19 15:14:04;;;;;;;3.28;1.10;;;;;;;;;;5085770;28;20135;-62
2021/12/19 15:16:37;;;;;;;2.03;1.10;;;;;;;;;;5084626;28;20040;-62
2021/12/19 15:19:05;;;;;;;2.87;0.90;;;;;;;;;;5081450;28;20131;-62
2021/12/19 15:21:31;;;;;;;;;;;;;;;;;;5082572;28;20040;-62
2021/12/19 15:23:59;;;;;;;1.17;1.00;;;;;;;;;;5075335;28;20003;-62
2021/12/19 15:26:27;;;;;;;12.00;1.30;;;;;;;;;;5079483;28;20079;-62
2021/12/19 15:28:56;;;;;;;2.00;1.10;;;;;;;;;;5082546;28;20056;-62
2021/12/19 15:31:30;;;;;;;2.22;0.90;;;;;;;;;;5076118;28;20048;-62
2021/12/19 15:33:57;;;;;;;3.20;1.33;;;;;;;;;;5078970;28;20091;-63
2021/12/19 15:36:24;;;;;;;3.22;1.33;;;;;;;;;;5082359;28;20044;-63
2021/12/19 15:38:58;;;;;;;7.93;5.93;;;;;;;;;;5078091;28;20583;-62
2021/12/19 15:41:25;;;;;;;2.22;2.00;;;;;;;;;;5082400;28;20537;-63
2021/12/19 15:43:53;;;;;;;2.38;1.60;;;;;;;;;;5082684;28;20568;-62
2021/12/19 15:46:27;;;;;;;1.73;1.08;;;;;;;;;;5082461;28;20048;-62
2021/12/19 15:48:56;;;;;;;1.35;1.13;;;;;;;;;;5080204;28;20076;-63
2021/12/19 15:51:23;;;;;;;2.42;1.40;;;;;;;;;;5079427;28;20098;-62
2021/12/19 15:53:52;;;;;;;1.98;1.20;;;;;;;;;;5078338;28;20102;-63
2021/12/19 15:56:19;;;;;;;2.95;1.35;;;;;;;;;;5081943;28;20076;-63
2021/12/19 15:58:53;;;;;;;4.47;1.20;;;;;;;;;;5076825;28;20135;-63
2021/12/19 16:01:19;;;;;;;1.77;1.23;;;;;;;;;;5076994;28;20132;-63
2021/12/19 16:03:45;;;;;;;5.63;1.30;;;;;;;;;;5078795;28;20147;-62
2021/12/19 16:06:13;;;;;;;3.05;1.50;;;;;;;;;;5075810;28;20109;-63
2021/12/19 16:08:39;;;;;;;2.53;1.57;;;;;;;;;;5078914;28;20208;-63